sensor_id;sensor_type;location;lat;lon;timestamp;pressure;altitude;pressure_sealevel;temperature;humidity
83896;BME280;74045;42.812;74.638;2024-03-02T00:00:50;91216.31;;;-5.05;80.91
83896;BME280;74045;42.812;74.638;2024-03-02T00:03:17;91214.19;;;-5.03;81.21
83896;BME280;74045;42.812;74.638;2024-03-02T00:05:43;91210.56;;;-5.02;80.91
83896;BME280;74045;42.812;74.638;2024-03-02T00:08:09;91194.34;;;-5.20;81.20
83896;BME280;74045;42.812;74.638;2024-03-02T00:10:38;91209.03;;;-5.03;80.82
83896;BME280;74045;42.812;74.638;2024-03-02T00:13:08;91210.56;;;-5.10;80.64
83896;BME280;74045;42.812;74.638;2024-03-02T00:15:52;91215.09;;;-4.99;80.48
83896;BME280;74045;42.812;74.638;2024-03-02T00:18:23;91207.38;;;-5.07;80.30
83896;BME280;74045;42.812;74.638;2024-03-02T00:20:53;91137.38;;;-5.53;80.41
83896;BME280;74045;42.812;74.638;2024-03-02T00:23:20;91213.91;;;-5.01;80.81
83896;BME280;74045;42.812;74.638;2024-03-02T00:25:49;91222.81;;;-4.99;80.58
83896;BME280;74045;42.812;74.638;2024-03-02T00:28:22;91221.16;;;-4.95;80.43
83896;BME280;74045;42.812;74.638;2024-03-02T00:33:30;91202.53;;;-5.00;80.16
83896;BME280;74045;42.812;74.638;2024-03-02T00:35:57;91211.75;;;-4.90;80.37
83896;BME280;74045;42.812;74.638;2024-03-02T00:38:23;91110.75;;;-5.48;79.96
83896;BME280;74045;42.812;74.638;2024-03-02T00:40:49;91209.34;;;-4.78;79.88
83896;BME280;74045;42.812;74.638;2024-03-02T00:46:19;91205.22;;;-4.70;79.36
83896;BME280;74045;42.812;74.638;2024-03-02T00:48:54;91124.22;;;-5.25;79.44
83896;BME280;74045;42.812;74.638;2024-03-02T00:51:21;91221.59;;;-4.58;79.51
83896;BME280;74045;42.812;74.638;2024-03-02T00:53:47;91224.03;;;-4.53;79.62
83896;BME280;74045;42.812;74.638;2024-03-02T00:56:13;91147.69;;;-5.01;78.95
83896;BME280;74045;42.812;74.638;2024-03-02T00:58:39;91199.03;;;-4.61;79.05
83896;BME280;74045;42.812;74.638;2024-03-02T01:01:06;91233.44;;;-4.48;78.72
83896;BME280;74045;42.812;74.638;2024-03-02T01:03:33;91234.03;;;-4.42;78.95
83896;BME280;74045;42.812;74.638;2024-03-02T01:05:59;91219.47;;;-4.38;78.76
83896;BME280;74045;42.812;74.638;2024-03-02T01:08:25;91219.63;;;-4.43;78.52
83896;BME280;74045;42.812;74.638;2024-03-02T01:10:51;91226.56;;;-4.35;78.23
83896;BME280;74045;42.812;74.638;2024-03-02T01:13:17;91230.50;;;-4.29;77.86
83896;BME280;74045;42.812;74.638;2024-03-02T01:15:43;91219.28;;;-4.33;78.61
83896;BME280;74045;42.812;74.638;2024-03-02T01:18:09;91220.19;;;-4.29;78.63
83896;BME280;74045;42.812;74.638;2024-03-02T01:20:35;91227.50;;;-4.31;78.66
83896;BME280;74045;42.812;74.638;2024-03-02T01:23:00;91207.94;;;-4.41;78.81
83896;BME280;74045;42.812;74.638;2024-03-02T01:25:26;91149.34;;;-4.79;78.43
83896;BME280;74045;42.812;74.638;2024-03-02T01:27:52;90994.50;;;-5.85;78.07
83896;BME280;74045;42.812;74.638;2024-03-02T01:30:18;91222.34;;;-4.31;78.38
83896;BME280;74045;42.812;74.638;2024-03-02T01:32:47;91220.66;;;-4.27;78.08
83896;BME280;74045;42.812;74.638;2024-03-02T01:35:12;91214.00;;;-4.37;78.10
83896;BME280;74045;42.812;74.638;2024-03-02T01:37:40;91227.16;;;-4.30;78.00
83896;BME280;74045;42.812;74.638;2024-03-02T01:40:06;91221.72;;;-4.28;77.68
83896;BME280;74045;42.812;74.638;2024-03-02T01:42:38;91210.03;;;-4.25;77.89
83896;BME280;74045;42.812;74.638;2024-03-02T01:45:08;91205.00;;;-4.22;78.01
83896;BME280;74045;42.812;74.638;2024-03-02T01:47:34;91235.19;;;-4.14;77.86
83896;BME280;74045;42.812;74.638;2024-03-02T01:50:01;91230.47;;;-4.12;77.52
83896;BME280;74045;42.812;74.638;2024-03-02T01:52:27;91224.41;;;-4.16;77.64
83896;BME280;74045;42.812;74.638;2024-03-02T01:54:53;91131.56;;;-4.72;77.40
83896;BME280;74045;42.812;74.638;2024-03-02T01:57:19;91133.06;;;-4.62;77.42
83896;BME280;74045;42.812;74.638;2024-03-02T01:59:46;91193.75;;;-4.17;76.75
83896;BME280;74045;42.812;74.638;2024-03-02T02:02:14;91229.19;;;-3.88;76.71
83896;BME280;74045;42.812;74.638;2024-03-02T02:04:40;91233.72;;;-3.85;76.28
83896;BME280;74045;42.812;74.638;2024-03-02T02:07:06;91144.84;;;-4.43;76.14
83896;BME280;74045;42.812;74.638;2024-03-02T02:09:32;91152.88;;;-4.36;75.94
83896;BME280;74045;42.812;74.638;2024-03-02T02:11:58;91244.44;;;-3.66;76.07
83896;BME280;74045;42.812;74.638;2024-03-02T02:14:25;91226.38;;;-3.66;75.84
83896;BME280;74045;42.812;74.638;2024-03-02T02:16:51;91141.56;;;-4.14;75.45
83896;BME280;74045;42.812;74.638;2024-03-02T02:19:17;91238.41;;;-3.40;75.69
83896;BME280;74045;42.812;74.638;2024-03-02T02:21:43;91221.13;;;-3.48;75.89
83896;BME280;74045;42.812;74.638;2024-03-02T02:24:09;91229.72;;;-3.35;74.85
83896;BME280;74045;42.812;74.638;2024-03-02T02:26:35;91157.91;;;-3.72;74.62
83896;BME280;74045;42.812;74.638;2024-03-02T02:29:00;91220.53;;;-3.24;74.16
83896;BME280;74045;42.812;74.638;2024-03-02T02:31:26;91243.06;;;-3.04;73.88
83896;BME280;74045;42.812;74.638;2024-03-02T02:33:52;91241.59;;;-2.93;73.81
83896;BME280;74045;42.812;74.638;2024-03-02T02:36:18;91170.88;;;-3.30;73.12
83896;BME280;74045;42.812;74.638;2024-03-02T02:38:46;91239.03;;;-2.72;73.16
83896;BME280;74045;42.812;74.638;2024-03-02T02:41:12;91240.22;;;-2.69;72.98
83896;BME280;74045;42.812;74.638;2024-03-02T02:43:38;91143.91;;;-3.20;73.09
83896;BME280;74045;42.812;74.638;2024-03-02T02:46:05;91132.53;;;-3.19;72.16
83896;BME280;74045;42.812;74.638;2024-03-02T02:48:31;91235.34;;;-2.50;71.32
83896;BME280;74045;42.812;74.638;2024-03-02T02:50:57;91247.03;;;-2.43;71.06
83896;BME280;74045;42.812;74.638;2024-03-02T02:53:22;91226.16;;;-2.26;70.02
83896;BME280;74045;42.812;74.638;2024-03-02T02:55:48;91223.59;;;-2.14;70.53
83896;BME280;74045;42.812;74.638;2024-03-02T02:58:14;91211.66;;;-2.18;70.91
83896;BME280;74045;42.812;74.638;2024-03-02T03:00:40;91238.09;;;-2.00;71.10
83896;BME280;74045;42.812;74.638;2024-03-02T03:03:06;91149.50;;;-2.43;71.23
83896;BME280;74045;42.812;74.638;2024-03-02T03:05:31;91107.41;;;-2.64;69.90
83896;BME280;74045;42.812;74.638;2024-03-02T03:07:57;91226.59;;;-1.78;69.74
83896;BME280;74045;42.812;74.638;2024-03-02T03:10:23;91226.59;;;-1.66;69.05
83896;BME280;74045;42.812;74.638;2024-03-02T03:12:51;91224.44;;;-1.52;69.30
83896;BME280;74045;42.812;74.638;2024-03-02T03:15:17;91227.91;;;-1.48;70.18
83896;BME280;74045;42.812;74.638;2024-03-02T03:17:43;91236.66;;;-1.40;70.56
83896;BME280;74045;42.812;74.638;2024-03-02T03:20:09;91225.97;;;-1.26;70.46
83896;BME280;74045;42.812;74.638;2024-03-02T03:22:41;91234.59;;;-1.22;69.87
83896;BME280;74045;42.812;74.638;2024-03-02T03:25:07;91159.91;;;-1.69;69.57
83896;BME280;74045;42.812;74.638;2024-03-02T03:27:36;91238.16;;;-1.02;69.23
83896;BME280;74045;42.812;74.638;2024-03-02T03:30:02;91227.75;;;-0.90;70.02
83896;BME280;74045;42.812;74.638;2024-03-02T03:32:28;91237.38;;;-0.78;70.04
83896;BME280;74045;42.812;74.638;2024-03-02T03:34:54;91221.81;;;-0.78;69.07
83896;BME280;74045;42.812;74.638;2024-03-02T03:37:20;91227.56;;;-0.57;69.63
83896;BME280;74045;42.812;74.638;2024-03-02T03:39:45;91235.56;;;-0.50;69.20
83896;BME280;74045;42.812;74.638;2024-03-02T03:42:11;91230.22;;;-0.41;69.07
83896;BME280;74045;42.812;74.638;2024-03-02T03:44:37;91222.72;;;-0.30;68.78
83896;BME280;74045;42.812;74.638;2024-03-02T03:47:07;91228.53;;;-0.21;67.87
83896;BME280;74045;42.812;74.638;2024-03-02T03:49:34;91220.06;;;-0.18;67.49
83896;BME280;74045;42.812;74.638;2024-03-02T03:52:01;91222.72;;;-0.02;66.22
83896;BME280;74045;42.812;74.638;2024-03-02T03:54:28;91215.44;;;0.04;65.72
83896;BME280;74045;42.812;74.638;2024-03-02T03:56:54;91222.22;;;0.24;65.38
83896;BME280;74045;42.812;74.638;2024-03-02T03:59:20;91189.81;;;0.18;65.50
83896;BME280;74045;42.812;74.638;2024-03-02T04:01:45;91199.94;;;0.39;64.55
83896;BME280;74045;42.812;74.638;2024-03-02T04:04:11;91216.63;;;0.54;64.57
83896;BME280;74045;42.812;74.638;2024-03-02T04:06:37;91198.75;;;0.52;63.73
83896;BME280;74045;42.812;74.638;2024-03-02T04:09:03;91213.84;;;0.62;63.10
83896;BME280;74045;42.812;74.638;2024-03-02T04:11:29;91229.69;;;0.73;63.60
83896;BME280;74045;42.812;74.638;2024-03-02T04:13:59;91215.19;;;0.72;63.08
83896;BME280;74045;42.812;74.638;2024-03-02T04:16:25;91208.47;;;0.71;62.40
83896;BME280;74045;42.812;74.638;2024-03-02T04:18:50;91146.56;;;0.26;62.49
83896;BME280;74045;42.812;74.638;2024-03-02T04:21:16;91243.03;;;0.87;62.71
83896;BME280;74045;42.812;74.638;2024-03-02T04:23:42;91254.94;;;0.88;63.13
83896;BME280;74045;42.812;74.638;2024-03-02T04:26:07;91244.19;;;0.90;62.25
83896;BME280;74045;42.812;74.638;2024-03-02T04:28:33;91241.47;;;1.02;63.55
83896;BME280;74045;42.812;74.638;2024-03-02T04:30:59;91244.31;;;1.13;63.25
83896;BME280;74045;42.812;74.638;2024-03-02T04:33:24;91252.19;;;1.17;62.45
83896;BME280;74045;42.812;74.638;2024-03-02T04:35:50;91240.84;;;1.25;62.29
83896;BME280;74045;42.812;74.638;2024-03-02T04:38:16;91222.50;;;1.18;61.26
83896;BME280;74045;42.812;74.638;2024-03-02T04:40:41;91244.84;;;1.38;61.22
83896;BME280;74045;42.812;74.638;2024-03-02T04:43:07;91138.66;;;0.54;60.41
83896;BME280;74045;42.812;74.638;2024-03-02T04:45:35;91168.81;;;0.74;61.24
83896;BME280;74045;42.812;74.638;2024-03-02T04:48:01;91195.00;;;1.01;60.74
83896;BME280;74045;42.812;74.638;2024-03-02T04:50:27;91236.41;;;1.25;59.71
83896;BME280;74045;42.812;74.638;2024-03-02T04:52:52;91239.56;;;1.34;61.36
83896;BME280;74045;42.812;74.638;2024-03-02T04:55:18;91229.81;;;1.31;60.74
83896;BME280;74045;42.812;74.638;2024-03-02T04:57:44;91245.06;;;1.49;61.48
83896;BME280;74045;42.812;74.638;2024-03-02T05:00:10;91243.16;;;1.46;59.57
83896;BME280;74045;42.812;74.638;2024-03-02T05:02:36;91221.50;;;1.42;60.26
83896;BME280;74045;42.812;74.638;2024-03-02T05:05:02;91236.09;;;1.46;59.94
83896;BME280;74045;42.812;74.638;2024-03-02T05:07:28;91231.69;;;1.50;60.50
83896;BME280;74045;42.812;74.638;2024-03-02T05:09:54;91146.53;;;0.93;59.86
83896;BME280;74045;42.812;74.638;2024-03-02T05:12:19;91231.69;;;1.50;60.26
83896;BME280;74045;42.812;74.638;2024-03-02T05:14:48;91217.94;;;1.50;59.92
83896;BME280;74045;42.812;74.638;2024-03-02T05:17:14;91222.31;;;1.65;60.23
83896;BME280;74045;42.812;74.638;2024-03-02T05:19:39;91222.88;;;1.74;59.91
83896;BME280;74045;42.812;74.638;2024-03-02T05:22:05;91229.31;;;1.81;60.24
83896;BME280;74045;42.812;74.638;2024-03-02T05:24:31;91202.72;;;1.71;59.58
83896;BME280;74045;42.812;74.638;2024-03-02T05:26:56;91213.41;;;1.86;59.51
83896;BME280;74045;42.812;74.638;2024-03-02T05:29:22;91188.28;;;1.54;57.74
83896;BME280;74045;42.812;74.638;2024-03-02T05:31:48;91174.28;;;1.24;58.71
83896;BME280;74045;42.812;74.638;2024-03-02T05:34:14;91212.03;;;1.53;59.92
83896;BME280;74045;42.812;74.638;2024-03-02T05:36:40;91203.34;;;1.45;59.25
83896;BME280;74045;42.812;74.638;2024-03-02T05:39:05;91216.22;;;1.58;60.32
83896;BME280;74045;42.812;74.638;2024-03-02T05:41:35;91211.41;;;1.60;59.95
83896;BME280;74045;42.812;74.638;2024-03-02T05:44:01;91209.97;;;1.62;58.77
83896;BME280;74045;42.812;74.638;2024-03-02T05:46:27;91206.03;;;1.68;58.89
83896;BME280;74045;42.812;74.638;2024-03-02T05:48:53;91206.16;;;1.75;59.22
83896;BME280;74045;42.812;74.638;2024-03-02T05:51:19;91175.47;;;1.46;58.04
83896;BME280;74045;42.812;74.638;2024-03-02T05:53:44;91212.66;;;1.66;59.52
83896;BME280;74045;42.812;74.638;2024-03-02T05:56:10;91196.31;;;1.46;59.09
83896;BME280;74045;42.812;74.638;2024-03-02T05:58:37;91209.50;;;1.37;60.18
83896;BME280;74045;42.812;74.638;2024-03-02T06:01:22;91214.16;;;1.28;59.48
83896;BME280;74045;42.812;74.638;2024-03-02T06:03:56;91206.06;;;1.33;60.77
83896;BME280;74045;42.812;74.638;2024-03-02T06:06:22;91203.28;;;1.42;60.83
83896;BME280;74045;42.812;74.638;2024-03-02T06:08:48;91212.31;;;1.48;60.01
83896;BME280;74045;42.812;74.638;2024-03-02T06:11:14;91208.75;;;1.56;60.14
83896;BME280;74045;42.812;74.638;2024-03-02T06:13:40;91216.91;;;1.54;60.21
83896;BME280;74045;42.812;74.638;2024-03-02T06:16:06;91211.63;;;1.51;60.25
83896;BME280;74045;42.812;74.638;2024-03-02T06:18:31;91210.41;;;1.64;60.44
83896;BME280;74045;42.812;74.638;2024-03-02T06:20:57;91201.63;;;1.53;59.71
83896;BME280;74045;42.812;74.638;2024-03-02T06:23:23;91126.38;;;0.89;60.58
83896;BME280;74045;42.812;74.638;2024-03-02T06:25:48;91221.97;;;1.47;60.28
83896;BME280;74045;42.812;74.638;2024-03-02T06:28:14;91205.16;;;1.25;60.45
83896;BME280;74045;42.812;74.638;2024-03-02T06:30:41;91211.97;;;1.30;60.74
83896;BME280;74045;42.812;74.638;2024-03-02T06:33:09;91204.56;;;1.32;60.98
83896;BME280;74045;42.812;74.638;2024-03-02T06:35:34;91213.63;;;1.38;61.21
83896;BME280;74045;42.812;74.638;2024-03-02T06:38:01;91212.09;;;1.37;60.66
83896;BME280;74045;42.812;74.638;2024-03-02T06:40:27;91147.66;;;1.11;61.36
83896;BME280;74045;42.812;74.638;2024-03-02T06:42:52;91179.03;;;1.57;61.40
83896;BME280;74045;42.812;74.638;2024-03-02T06:45:18;91160.50;;;1.62;60.48
83896;BME280;74045;42.812;74.638;2024-03-02T06:47:44;91205.44;;;1.98;60.06
83896;BME280;74045;42.812;74.638;2024-03-02T06:50:10;91227.72;;;1.95;59.89
83896;BME280;74045;42.812;74.638;2024-03-02T06:52:35;91207.09;;;1.87;60.92
83896;BME280;74045;42.812;74.638;2024-03-02T06:55:02;91210.88;;;1.89;60.81
83896;BME280;74045;42.812;74.638;2024-03-02T06:57:29;91222.97;;;2.01;60.78
83896;BME280;74045;42.812;74.638;2024-03-02T06:59:55;91220.09;;;2.06;60.83
83896;BME280;74045;42.812;74.638;2024-03-02T07:02:26;91227.69;;;2.15;61.29
83896;BME280;74045;42.812;74.638;2024-03-02T07:04:55;91203.22;;;2.19;61.52
83896;BME280;74045;42.812;74.638;2024-03-02T07:07:20;91211.38;;;2.18;61.48
83896;BME280;74045;42.812;74.638;2024-03-02T07:09:46;91216.38;;;2.07;61.67
83896;BME280;74045;42.812;74.638;2024-03-02T07:12:13;91223.22;;;2.15;61.56
83896;BME280;74045;42.812;74.638;2024-03-02T07:14:39;91226.81;;;2.07;61.34
83896;BME280;74045;42.812;74.638;2024-03-02T07:17:42;91156.47;;;1.65;61.67
83896;BME280;74045;42.812;74.638;2024-03-02T07:20:08;91217.97;;;2.12;62.25
83896;BME280;74045;42.812;74.638;2024-03-02T07:22:34;91217.53;;;2.10;62.50
83896;BME280;74045;42.812;74.638;2024-03-02T07:25:00;91219.03;;;1.88;62.31
83896;BME280;74045;42.812;74.638;2024-03-02T07:27:26;91205.59;;;1.86;63.27
83896;BME280;74045;42.812;74.638;2024-03-02T07:29:51;91213.25;;;1.98;63.72
83896;BME280;74045;42.812;74.638;2024-03-02T07:32:17;91209.97;;;1.82;63.16
83896;BME280;74045;42.812;74.638;2024-03-02T07:34:43;91213.91;;;1.72;64.12
83896;BME280;74045;42.812;74.638;2024-03-02T07:37:09;91168.25;;;1.39;63.94
83896;BME280;74045;42.812;74.638;2024-03-02T07:39:35;91200.53;;;1.54;64.10
83896;BME280;74045;42.812;74.638;2024-03-02T07:42:01;91187.88;;;1.52;65.23
83896;BME280;74045;42.812;74.638;2024-03-02T07:44:26;91183.13;;;1.77;64.98
83896;BME280;74045;42.812;74.638;2024-03-02T07:46:52;91183.38;;;1.92;64.66
83896;BME280;74045;42.812;74.638;2024-03-02T07:49:18;91191.72;;;2.01;64.61
83896;BME280;74045;42.812;74.638;2024-03-02T07:51:44;91185.31;;;2.18;64.38
83896;BME280;74045;42.812;74.638;2024-03-02T07:54:10;91170.78;;;2.17;64.29
83896;BME280;74045;42.812;74.638;2024-03-02T07:56:36;91180.28;;;2.29;64.56
83896;BME280;74045;42.812;74.638;2024-03-02T07:59:02;91164.34;;;2.34;64.77
83896;BME280;74045;42.812;74.638;2024-03-02T08:01:29;91151.19;;;2.27;64.70
83896;BME280;74045;42.812;74.638;2024-03-02T08:03:58;91160.00;;;2.18;64.89
83896;BME280;74045;42.812;74.638;2024-03-02T08:06:26;91089.38;;;1.35;65.11
83896;BME280;74045;42.812;74.638;2024-03-02T08:09:00;91156.66;;;1.75;65.49
83896;BME280;74045;42.812;74.638;2024-03-02T08:11:26;91126.41;;;1.28;66.33
83896;BME280;74045;42.812;74.638;2024-03-02T08:13:53;91151.09;;;1.34;67.39
83896;BME280;74045;42.812;74.638;2024-03-02T08:16:23;91155.59;;;1.38;67.57
83896;BME280;74045;42.812;74.638;2024-03-02T08:18:51;91166.72;;;1.34;67.19
83896;BME280;74045;42.812;74.638;2024-03-02T08:21:17;91085.81;;;0.85;67.85
83896;BME280;74045;42.812;74.638;2024-03-02T08:23:43;91090.13;;;0.97;67.63
83896;BME280;74045;42.812;74.638;2024-03-02T08:26:09;91143.81;;;1.44;68.04
83896;BME280;74045;42.812;74.638;2024-03-02T08:28:35;91136.97;;;1.55;68.09
83896;BME280;74045;42.812;74.638;2024-03-02T08:31:03;91143.81;;;1.63;67.37
83896;BME280;74045;42.812;74.638;2024-03-02T08:33:29;91079.72;;;0.97;67.84
83896;BME280;74045;42.812;74.638;2024-03-02T08:35:55;91149.72;;;1.41;67.82
83896;BME280;74045;42.812;74.638;2024-03-02T08:38:21;91116.00;;;1.28;68.11
83896;BME280;74045;42.812;74.638;2024-03-02T08:40:47;91156.25;;;1.54;68.65
83896;BME280;74045;42.812;74.638;2024-03-02T08:43:13;91159.81;;;1.65;68.16
83896;BME280;74045;42.812;74.638;2024-03-02T08:45:39;91146.41;;;1.63;67.86
83896;BME280;74045;42.812;74.638;2024-03-02T08:48:07;91156.59;;;1.72;67.98
83896;BME280;74045;42.812;74.638;2024-03-02T08:50:36;91150.66;;;1.71;68.00
83896;BME280;74045;42.812;74.638;2024-03-02T08:53:03;91161.06;;;1.71;67.88
83896;BME280;74045;42.812;74.638;2024-03-02T08:55:29;91131.28;;;1.49;68.71
83896;BME280;74045;42.812;74.638;2024-03-02T08:57:55;91135.75;;;1.49;69.02
83896;BME280;74045;42.812;74.638;2024-03-02T09:00:22;91140.53;;;1.47;68.76
83896;BME280;74045;42.812;74.638;2024-03-02T09:02:48;91148.34;;;1.27;69.40
83896;BME280;74045;42.812;74.638;2024-03-02T09:05:14;91133.06;;;0.87;69.59
83896;BME280;74045;42.812;74.638;2024-03-02T09:07:40;91184.53;;;0.97;70.91
83896;BME280;74045;42.812;74.638;2024-03-02T09:10:06;91188.25;;;0.80;72.09
83896;BME280;74045;42.812;74.638;2024-03-02T09:12:32;91185.34;;;0.66;71.89
83896;BME280;74045;42.812;74.638;2024-03-02T09:14:59;91119.16;;;0.28;72.22
83896;BME280;74045;42.812;74.638;2024-03-02T09:17:25;91178.03;;;0.72;72.97
83896;BME280;74045;42.812;74.638;2024-03-02T09:19:51;91198.66;;;0.80;73.27
83896;BME280;74045;42.812;74.638;2024-03-02T09:22:18;91085.75;;;-0.05;74.08
83896;BME280;74045;42.812;74.638;2024-03-02T09:24:44;91181.06;;;0.74;73.84
83896;BME280;74045;42.812;74.638;2024-03-02T09:27:10;91194.09;;;0.93;73.38
83896;BME280;74045;42.812;74.638;2024-03-02T09:29:37;91189.22;;;0.92;73.08
83896;BME280;74045;42.812;74.638;2024-03-02T09:32:02;91190.28;;;0.71;73.44
83896;BME280;74045;42.812;74.638;2024-03-02T09:34:28;91193.13;;;0.50;74.55
83896;BME280;74045;42.812;74.638;2024-03-02T09:36:54;91196.91;;;0.53;75.20
83896;BME280;74045;42.812;74.638;2024-03-02T09:39:20;91178.81;;;0.56;74.65
83896;BME280;74045;42.812;74.638;2024-03-02T09:41:47;91175.38;;;0.52;74.27
83896;BME280;74045;42.812;74.638;2024-03-02T09:44:13;91118.06;;;0.45;73.94
83896;BME280;74045;42.812;74.638;2024-03-02T09:46:39;91161.97;;;0.85;73.60
83896;BME280;74045;42.812;74.638;2024-03-02T09:49:05;91106.09;;;0.09;73.84
83896;BME280;74045;42.812;74.638;2024-03-02T09:51:31;91169.59;;;0.59;74.31
83896;BME280;74045;42.812;74.638;2024-03-02T09:53:57;91080.31;;;0.00;74.45
83896;BME280;74045;42.812;74.638;2024-03-02T09:56:23;91173.34;;;0.61;74.85
83896;BME280;74045;42.812;74.638;2024-03-02T09:58:49;91169.44;;;0.52;75.45
83896;BME280;74045;42.812;74.638;2024-03-02T10:01:14;91149.88;;;0.42;75.09
83896;BME280;74045;42.812;74.638;2024-03-02T10:03:40;91177.41;;;0.59;74.92
83896;BME280;74045;42.812;74.638;2024-03-02T10:06:24;91122.50;;;0.13;74.88
83896;BME280;74045;42.812;74.638;2024-03-02T10:08:50;91163.31;;;0.44;74.97
83896;BME280;74045;42.812;74.638;2024-03-02T10:11:30;91185.09;;;0.55;75.24
83896;BME280;74045;42.812;74.638;2024-03-02T10:14:12;91061.19;;;-0.39;74.50
83896;BME280;74045;42.812;74.638;2024-03-02T10:16:43;91179.50;;;0.37;75.32
83896;BME280;74045;42.812;74.638;2024-03-02T10:19:22;91187.53;;;0.32;75.17
83896;BME280;74045;42.812;74.638;2024-03-02T10:21:49;91182.31;;;0.16;74.66
83896;BME280;74045;42.812;74.638;2024-03-02T10:24:15;91198.75;;;0.05;75.72
83896;BME280;74045;42.812;74.638;2024-03-02T10:26:41;91191.53;;;-0.02;75.42
83896;BME280;74045;42.812;74.638;2024-03-02T10:29:09;91152.47;;;-0.37;74.86
83896;BME280;74045;42.812;74.638;2024-03-02T10:31:43;91179.34;;;-0.30;73.79
83896;BME280;74045;42.812;74.638;2024-03-02T10:34:10;91181.06;;;-0.50;73.85
83896;BME280;74045;42.812;74.638;2024-03-02T10:36:40;91183.22;;;-0.52;74.85
83896;BME280;74045;42.812;74.638;2024-03-02T10:39:08;91178.72;;;-0.55;75.90
83896;BME280;74045;42.812;74.638;2024-03-02T10:41:35;91186.69;;;-0.48;75.73
83896;BME280;74045;42.812;74.638;2024-03-02T10:44:03;91163.97;;;-0.51;75.32
83896;BME280;74045;42.812;74.638;2024-03-02T10:46:30;91194.84;;;-0.33;75.86
83896;BME280;74045;42.812;74.638;2024-03-02T10:48:57;91181.09;;;-0.34;75.52
83896;BME280;74045;42.812;74.638;2024-03-02T10:51:29;91194.34;;;-0.23;75.22
83896;BME280;74045;42.812;74.638;2024-03-02T10:53:58;91117.28;;;-0.79;75.42
83896;BME280;74045;42.812;74.638;2024-03-02T10:56:40;91201.06;;;-0.22;75.27
83896;BME280;74045;42.812;74.638;2024-03-02T10:59:28;91198.97;;;-0.16;74.89
83896;BME280;74045;42.812;74.638;2024-03-02T11:01:59;91203.16;;;-0.28;74.46
83896;BME280;74045;42.812;74.638;2024-03-02T11:04:29;91209.25;;;-0.20;73.62
83896;BME280;74045;42.812;74.638;2024-03-02T11:07:06;91216.38;;;-0.17;73.18
83896;BME280;74045;42.812;74.638;2024-03-02T11:09:41;91189.16;;;-0.23;72.76
83896;BME280;74045;42.812;74.638;2024-03-02T11:12:13;91196.66;;;-0.34;71.56
83896;BME280;74045;42.812;74.638;2024-03-02T11:14:42;91189.44;;;-0.40;72.79
83896;BME280;74045;42.812;74.638;2024-03-02T11:17:12;91105.63;;;-1.01;72.36
83896;BME280;74045;42.812;74.638;2024-03-02T11:19:39;91193.69;;;-0.48;71.74
83896;BME280;74045;42.812;74.638;2024-03-02T11:22:06;91208.09;;;-0.51;72.62
83896;BME280;74045;42.812;74.638;2024-03-02T11:24:33;91200.22;;;-0.54;72.50
83896;BME280;74045;42.812;74.638;2024-03-02T11:27:00;91217.31;;;-0.53;72.10
83896;BME280;74045;42.812;74.638;2024-03-02T11:32:06;91199.00;;;-0.44;72.27
83896;BME280;74045;42.812;74.638;2024-03-02T11:34:33;91210.88;;;-0.43;71.95
83896;BME280;74045;42.812;74.638;2024-03-02T11:37:03;91201.16;;;-0.47;72.36
83896;BME280;74045;42.812;74.638;2024-03-02T11:39:30;91203.75;;;-0.47;72.82
83896;BME280;74045;42.812;74.638;2024-03-02T11:41:59;91199.75;;;-0.44;72.60
83896;BME280;74045;42.812;74.638;2024-03-02T11:44:28;91195.78;;;-0.54;72.13
83896;BME280;74045;42.812;74.638;2024-03-02T11:47:00;91183.16;;;-0.68;72.96
83896;BME280;74045;42.812;74.638;2024-03-02T11:49:55;91207.25;;;-0.55;73.26
83896;BME280;74045;42.812;74.638;2024-03-02T11:52:22;91228.22;;;-0.60;73.64
83896;BME280;74045;42.812;74.638;2024-03-02T11:54:49;91226.19;;;-0.66;73.18
83896;BME280;74045;42.812;74.638;2024-03-02T11:57:22;91206.69;;;-0.88;74.13
83896;BME280;74045;42.812;74.638;2024-03-02T11:59:48;91236.59;;;-0.79;73.76
83896;BME280;74045;42.812;74.638;2024-03-02T12:02:21;91228.09;;;-0.92;74.06
83896;BME280;74045;42.812;74.638;2024-03-02T12:04:48;91245.78;;;-0.81;73.62
83896;BME280;74045;42.812;74.638;2024-03-02T12:07:22;91246.56;;;-0.81;74.13
83896;BME280;74045;42.812;74.638;2024-03-02T12:09:49;91243.00;;;-0.88;73.92
83896;BME280;74045;42.812;74.638;2024-03-02T12:12:24;91258.88;;;-0.78;73.49
83896;BME280;74045;42.812;74.638;2024-03-02T12:14:53;91254.22;;;-0.84;74.13
83896;BME280;74045;42.812;74.638;2024-03-02T12:17:21;91242.16;;;-1.05;74.09
83896;BME280;74045;42.812;74.638;2024-03-02T12:19:48;91273.25;;;-0.93;74.31
83896;BME280;74045;42.812;74.638;2024-03-02T12:22:14;91272.41;;;-0.97;74.27
83896;BME280;74045;42.812;74.638;2024-03-02T12:24:41;91276.72;;;-1.01;74.79
83896;BME280;74045;42.812;74.638;2024-03-02T12:27:07;91291.41;;;-1.05;75.37
83896;BME280;74045;42.812;74.638;2024-03-02T12:29:34;91283.19;;;-1.07;75.38
83896;BME280;74045;42.812;74.638;2024-03-02T12:31:59;91294.97;;;-1.09;76.04
83896;BME280;74045;42.812;74.638;2024-03-02T12:34:31;91290.13;;;-1.11;75.84
83896;BME280;74045;42.812;74.638;2024-03-02T12:36:59;91288.81;;;-1.17;75.52
83896;BME280;74045;42.812;74.638;2024-03-02T12:39:24;91278.31;;;-1.21;75.70
83896;BME280;74045;42.812;74.638;2024-03-02T12:41:51;91264.09;;;-1.39;75.89
83896;BME280;74045;42.812;74.638;2024-03-02T12:44:19;91288.50;;;-1.28;76.40
83896;BME280;74045;42.812;74.638;2024-03-02T12:46:46;91265.03;;;-1.44;76.10
83896;BME280;74045;42.812;74.638;2024-03-02T12:49:16;91287.50;;;-1.36;76.35
83896;BME280;74045;42.812;74.638;2024-03-02T12:51:42;91286.75;;;-1.36;76.31
83896;BME280;74045;42.812;74.638;2024-03-02T12:54:09;91290.53;;;-1.33;76.15
83896;BME280;74045;42.812;74.638;2024-03-02T12:56:36;91304.34;;;-1.29;75.91
83896;BME280;74045;42.812;74.638;2024-03-02T12:59:03;91283.81;;;-1.35;76.13
83896;BME280;74045;42.812;74.638;2024-03-02T13:01:29;91272.38;;;-1.46;75.94
83896;BME280;74045;42.812;74.638;2024-03-02T13:03:56;91265.69;;;-1.47;75.83